sensor_id;sensor_type;location;lat;lon;timestamp;pressure;altitude;pressure_sealevel;temperature;humidity
27210;BME280;14721;42.668;23.386;2023-01-29T00:01:51;95450.81;;;0.70;95.70
27210;BME280;14721;42.668;23.386;2023-01-29T00:04:17;95461.22;;;0.73;95.87
27210;BME280;14721;42.668;23.386;2023-01-29T00:06:43;95460.09;;;0.80;95.83
27210;BME280;14721;42.668;23.386;2023-01-29T00:09:10;95465.25;;;0.83;95.62
27210;BME280;14721;42.668;23.386;2023-01-29T00:11:37;95472.25;;;0.84;95.80
27210;BME280;14721;42.668;23.386;2023-01-29T00:14:03;95467.59;;;0.90;95.46
27210;BME280;14721;42.668;23.386;2023-01-29T00:16:29;95477.34;;;0.88;95.32
27210;BME280;14721;42.668;23.386;2023-01-29T00:18:54;95472.03;;;0.90;95.13
27210;BME280;14721;42.668;23.386;2023-01-29T00:21:21;95484.38;;;0.88;95.12
27210;BME280;14721;42.668;23.386;2023-01-29T00:23:48;95466.53;;;0.71;95.61
27210;BME280;14721;42.668;23.386;2023-01-29T00:26:14;95481.38;;;0.72;96.07
27210;BME280;14721;42.668;23.386;2023-01-29T00:28:40;95482.97;;;0.78;96.29
27210;BME280;14721;42.668;23.386;2023-01-29T00:31:16;95483.72;;;0.81;96.26
27210;BME280;14721;42.668;23.386;2023-01-29T00:33:42;95484.63;;;0.80;96.24
27210;BME280;14721;42.668;23.386;2023-01-29T00:36:10;95485.34;;;0.85;96.25
27210;BME280;14721;42.668;23.386;2023-01-29T00:38:36;95490.41;;;0.91;96.20
27210;BME280;14721;42.668;23.386;2023-01-29T00:41:13;95484.25;;;0.91;96.44
27210;BME280;14721;42.668;23.386;2023-01-29T00:43:59;95482.25;;;0.99;96.22
27210;BME280;14721;42.668;23.386;2023-01-29T00:46:43;95484.88;;;0.99;96.27
27210;BME280;14721;42.668;23.386;2023-01-29T00:49:09;95482.41;;;0.94;95.99
27210;BME280;14721;42.668;23.386;2023-01-29T00:51:36;95479.88;;;0.91;95.92
27210;BME280;14721;42.668;23.386;2023-01-29T00:54:02;95486.84;;;0.92;96.13
27210;BME280;14721;42.668;23.386;2023-01-29T00:56:32;95487.66;;;0.94;96.17
27210;BME280;14721;42.668;23.386;2023-01-29T00:58:58;95480.72;;;0.92;96.68
27210;BME280;14721;42.668;23.386;2023-01-29T01:01:24;95483.66;;;0.83;96.88
27210;BME280;14721;42.668;23.386;2023-01-29T01:04:10;95480.25;;;0.81;97.42
27210;BME280;14721;42.668;23.386;2023-01-29T01:06:37;95483.59;;;0.84;97.50
27210;BME280;14721;42.668;23.386;2023-01-29T01:09:04;95480.13;;;0.84;97.69
27210;BME280;14721;42.668;23.386;2023-01-29T01:11:48;95480.09;;;0.85;97.73
27210;BME280;14721;42.668;23.386;2023-01-29T01:14:13;95476.19;;;0.71;97.86
27210;BME280;14721;42.668;23.386;2023-01-29T01:16:39;95486.75;;;0.69;98.29
27210;BME280;14721;42.668;23.386;2023-01-29T01:19:04;95484.28;;;0.65;98.75
27210;BME280;14721;42.668;23.386;2023-01-29T01:21:31;95477.09;;;0.70;99.14
27210;BME280;14721;42.668;23.386;2023-01-29T01:23:57;95472.56;;;0.75;99.12
27210;BME280;14721;42.668;23.386;2023-01-29T01:26:22;95457.16;;;0.64;98.54
27210;BME280;14721;42.668;23.386;2023-01-29T01:28:48;95453.84;;;0.58;98.64
27210;BME280;14721;42.668;23.386;2023-01-29T01:31:13;95473.19;;;0.57;98.83
27210;BME280;14721;42.668;23.386;2023-01-29T01:33:40;95465.41;;;0.54;98.79
27210;BME280;14721;42.668;23.386;2023-01-29T01:36:06;95473.22;;;0.55;98.97
27210;BME280;14721;42.668;23.386;2023-01-29T01:38:36;95454.94;;;0.52;98.63
27210;BME280;14721;42.668;23.386;2023-01-29T01:41:10;95472.63;;;0.47;98.68
27210;BME280;14721;42.668;23.386;2023-01-29T01:44:05;95471.81;;;0.45;98.65
27210;BME280;14721;42.668;23.386;2023-01-29T01:46:34;95481.31;;;0.49;98.94
27210;BME280;14721;42.668;23.386;2023-01-29T01:49:07;95482.13;;;0.51;99.33
27210;BME280;14721;42.668;23.386;2023-01-29T01:51:39;95475.00;;;0.55;99.45
27210;BME280;14721;42.668;23.386;2023-01-29T01:54:11;95489.94;;;0.53;99.55
27210;BME280;14721;42.668;23.386;2023-01-29T01:59:11;95480.34;;;0.52;100.00
27210;BME280;14721;42.668;23.386;2023-01-29T02:01:39;95485.72;;;0.49;100.00
27210;BME280;14721;42.668;23.386;2023-01-29T02:04:12;95494.41;;;0.51;100.00
27210;BME280;14721;42.668;23.386;2023-01-29T02:07:00;95489.47;;;0.42;100.00
27210;BME280;14721;42.668;23.386;2023-01-29T02:09:52;95479.25;;;0.33;100.00
27210;BME280;14721;42.668;23.386;2023-01-29T02:12:20;95492.88;;;0.44;100.00
27210;BME280;14721;42.668;23.386;2023-01-29T02:14:46;95483.97;;;0.49;100.00
27210;BME280;14721;42.668;23.386;2023-01-29T02:17:15;95490.09;;;0.48;100.00
27210;BME280;14721;42.668;23.386;2023-01-29T02:31:01;95495.94;;;0.58;100.00
27210;BME280;14721;42.668;23.386;2023-01-29T02:34:07;95503.50;;;0.41;100.00
27210;BME280;14721;42.668;23.386;2023-01-29T02:37:04;95504.16;;;0.47;100.00
27210;BME280;14721;42.668;23.386;2023-01-29T02:40:06;95489.41;;;0.43;100.00
27210;BME280;14721;42.668;23.386;2023-01-29T02:42:39;95509.47;;;0.46;100.00
27210;BME280;14721;42.668;23.386;2023-01-29T02:45:17;95511.84;;;0.53;100.00
27210;BME280;14721;42.668;23.386;2023-01-29T02:47:59;95512.66;;;0.55;100.00
27210;BME280;14721;42.668;23.386;2023-01-29T02:50:54;95509.06;;;0.58;100.00
27210;BME280;14721;42.668;23.386;2023-01-29T02:56:12;95505.88;;;0.48;100.00
27210;BME280;14721;42.668;23.386;2023-01-29T02:58:59;95513.91;;;0.44;100.00
27210;BME280;14721;42.668;23.386;2023-01-29T03:01:52;95513.84;;;0.45;100.00
27210;BME280;14721;42.668;23.386;2023-01-29T03:04:30;95513.81;;;0.47;100.00
27210;BME280;14721;42.668;23.386;2023-01-29T03:07:02;95513.31;;;0.36;100.00
27210;BME280;14721;42.668;23.386;2023-01-29T03:09:43;95514.19;;;0.35;100.00
27210;BME280;14721;42.668;23.386;2023-01-29T03:12:25;95519.25;;;0.41;100.00
27210;BME280;14721;42.668;23.386;2023-01-29T03:15:17;95517.50;;;0.41;100.00
27210;BME280;14721;42.668;23.386;2023-01-29T03:17:57;95512.09;;;0.46;100.00
27210;BME280;14721;42.668;23.386;2023-01-29T03:20:31;95512.97;;;0.46;100.00
27210;BME280;14721;42.668;23.386;2023-01-29T03:23:10;95520.56;;;0.55;100.00
27210;BME280;14721;42.668;23.386;2023-01-29T03:25:41;95519.69;;;0.55;100.00
27210;BME280;14721;42.668;23.386;2023-01-29T03:28:27;95527.56;;;0.55;100.00
27210;BME280;14721;42.668;23.386;2023-01-29T03:31:16;95524.94;;;0.55;100.00
27210;BME280;14721;42.668;23.386;2023-01-29T03:34:12;95526.50;;;0.60;100.00
27210;BME280;14721;42.668;23.386;2023-01-29T03:36:54;95524.63;;;0.64;100.00
27210;BME280;14721;42.668;23.386;2023-01-29T03:39:36;95525.56;;;0.63;100.00
27210;BME280;14721;42.668;23.386;2023-01-29T03:45:14;95521.28;;;0.59;100.00
27210;BME280;14721;42.668;23.386;2023-01-29T03:48:22;95516.09;;;0.57;100.00
27210;BME280;14721;42.668;23.386;2023-01-29T03:51:22;95519.44;;;0.62;100.00
27210;BME280;14721;42.668;23.386;2023-01-29T03:56:58;95520.50;;;0.57;100.00
27210;BME280;14721;42.668;23.386;2023-01-29T04:02:35;95528.44;;;0.55;100.00
27210;BME280;14721;42.668;23.386;2023-01-29T04:05:10;95519.63;;;0.56;100.00
27210;BME280;14721;42.668;23.386;2023-01-29T04:07:44;95526.91;;;0.48;100.00
27210;BME280;14721;42.668;23.386;2023-01-29T04:10:18;95520.91;;;0.45;100.00
27210;BME280;14721;42.668;23.386;2023-01-29T04:12:52;95528.53;;;0.52;100.00
27210;BME280;14721;42.668;23.386;2023-01-29T04:15:21;95530.16;;;0.56;100.00
27210;BME280;14721;42.668;23.386;2023-01-29T04:17:50;95528.78;;;0.45;100.00
27210;BME280;14721;42.668;23.386;2023-01-29T04:20:17;95534.00;;;0.46;100.00
27210;BME280;14721;42.668;23.386;2023-01-29T04:22:48;95527.78;;;0.49;100.00
27210;BME280;14721;42.668;23.386;2023-01-29T04:28:06;95536.63;;;0.46;100.00
27210;BME280;14721;42.668;23.386;2023-01-29T04:36:17;95535.91;;;0.41;100.00
27210;BME280;14721;42.668;23.386;2023-01-29T04:39:24;95543.53;;;0.49;100.00
27210;BME280;14721;42.668;23.386;2023-01-29T04:42:04;95546.28;;;0.46;100.00
27210;BME280;14721;42.668;23.386;2023-01-29T04:44:42;95533.50;;;0.34;100.00
27210;BME280;14721;42.668;23.386;2023-01-29T04:47:45;95532.50;;;0.38;100.00
27210;BME280;14721;42.668;23.386;2023-01-29T04:53:09;95548.81;;;0.49;100.00
27210;BME280;14721;42.668;23.386;2023-01-29T04:55:52;95548.03;;;0.45;100.00
27210;BME280;14721;42.668;23.386;2023-01-29T04:58:50;95544.41;;;0.49;100.00
27210;BME280;14721;42.668;23.386;2023-01-29T05:01:18;95543.53;;;0.49;100.00
27210;BME280;14721;42.668;23.386;2023-01-29T05:03:48;95546.91;;;0.54;100.00
27210;BME280;14721;42.668;23.386;2023-01-29T05:06:15;95548.91;;;0.46;100.00
27210;BME280;14721;42.668;23.386;2023-01-29T05:08:43;95542.91;;;0.41;100.00
27210;BME280;14721;42.668;23.386;2023-01-29T05:11:10;95545.69;;;0.36;100.00
27210;BME280;14721;42.668;23.386;2023-01-29T05:13:37;95556.09;;;0.39;100.00
27210;BME280;14721;42.668;23.386;2023-01-29T05:16:11;95549.34;;;0.32;100.00
27210;BME280;14721;42.668;23.386;2023-01-29T05:18:38;95546.25;;;0.18;100.00
27210;BME280;14721;42.668;23.386;2023-01-29T05:21:06;95553.13;;;0.24;100.00
27210;BME280;14721;42.668;23.386;2023-01-29T05:23:33;95557.25;;;0.31;100.00
27210;BME280;14721;42.668;23.386;2023-01-29T05:25:59;95556.28;;;0.33;100.00
27210;BME280;14721;42.668;23.386;2023-01-29T05:28:24;95560.75;;;0.31;100.00
27210;BME280;14721;42.668;23.386;2023-01-29T05:30:52;95569.44;;;0.33;100.00
27210;BME280;14721;42.668;23.386;2023-01-29T05:33:26;95558.19;;;0.30;100.00
27210;BME280;14721;42.668;23.386;2023-01-29T05:35:53;95574.94;;;0.26;100.00
27210;BME280;14721;42.668;23.386;2023-01-29T05:38:20;95567.59;;;0.37;100.00
27210;BME280;14721;42.668;23.386;2023-01-29T05:40:48;95569.34;;;0.36;100.00
27210;BME280;14721;42.668;23.386;2023-01-29T05:43:18;95569.09;;;0.44;100.00
27210;BME280;14721;42.668;23.386;2023-01-29T05:46:04;95571.78;;;0.42;100.00
27210;BME280;14721;42.668;23.386;2023-01-29T05:48:35;95564.72;;;0.44;100.00
27210;BME280;14721;42.668;23.386;2023-01-29T05:51:02;95567.25;;;0.47;100.00
27210;BME280;14721;42.668;23.386;2023-01-29T05:53:29;95572.56;;;0.46;100.00
27210;BME280;14721;42.668;23.386;2023-01-29T05:55:56;95572.47;;;0.49;100.00
27210;BME280;14721;42.668;23.386;2023-01-29T05:58:25;95582.06;;;0.50;100.00
27210;BME280;14721;42.668;23.386;2023-01-29T06:00:52;95578.81;;;0.42;100.00
27210;BME280;14721;42.668;23.386;2023-01-29T06:03:18;95573.72;;;0.37;100.00
27210;BME280;14721;42.668;23.386;2023-01-29T06:05:44;95584.28;;;0.36;100.00
27210;BME280;14721;42.668;23.386;2023-01-29T06:08:10;95581.84;;;0.30;100.00
27210;BME280;14721;42.668;23.386;2023-01-29T06:10:36;95595.91;;;0.27;100.00
27210;BME280;14721;42.668;23.386;2023-01-29T06:13:03;95598.06;;;0.42;100.00
27210;BME280;14721;42.668;23.386;2023-01-29T06:15:30;95595.19;;;0.50;100.00
27210;BME280;14721;42.668;23.386;2023-01-29T06:17:56;95598.56;;;0.55;100.00
27210;BME280;14721;42.668;23.386;2023-01-29T06:20:23;95597.72;;;0.53;100.00
27210;BME280;14721;42.668;23.386;2023-01-29T06:22:48;95606.44;;;0.55;100.00
27210;BME280;14721;42.668;23.386;2023-01-29T06:25:14;95609.31;;;0.47;100.00
27210;BME280;14721;42.668;23.386;2023-01-29T06:27:40;95609.78;;;0.60;100.00
27210;BME280;14721;42.668;23.386;2023-01-29T06:30:07;95617.53;;;0.64;100.00
27210;BME280;14721;42.668;23.386;2023-01-29T06:32:33;95608.69;;;0.67;100.00
27210;BME280;14721;42.668;23.386;2023-01-29T06:34:59;95626.25;;;0.65;100.00
27210;BME280;14721;42.668;23.386;2023-01-29T06:37:25;95615.47;;;0.74;100.00
27210;BME280;14721;42.668;23.386;2023-01-29T06:39:50;95624.03;;;0.80;100.00
27210;BME280;14721;42.668;23.386;2023-01-29T06:42:16;95628.06;;;0.90;100.00
27210;BME280;14721;42.668;23.386;2023-01-29T06:44:41;95631.66;;;0.88;100.00
27210;BME280;14721;42.668;23.386;2023-01-29T06:47:07;95628.31;;;0.83;100.00
27210;BME280;14721;42.668;23.386;2023-01-29T06:49:33;95638.53;;;0.92;100.00
27210;BME280;14721;42.668;23.386;2023-01-29T06:51:58;95637.50;;;0.97;100.00
27210;BME280;14721;42.668;23.386;2023-01-29T06:54:24;95646.19;;;0.99;100.00
27210;BME280;14721;42.668;23.386;2023-01-29T06:56:50;95646.97;;;1.03;100.00
27210;BME280;14721;42.668;23.386;2023-01-29T06:59:16;95645.25;;;1.02;100.00
27210;BME280;14721;42.668;23.386;2023-01-29T07:01:41;95643.34;;;1.05;100.00
27210;BME280;14721;42.668;23.386;2023-01-29T07:04:09;95648.56;;;1.07;100.00
27210;BME280;14721;42.668;23.386;2023-01-29T07:06:35;95645.41;;;0.97;100.00
27210;BME280;14721;42.668;23.386;2023-01-29T07:09:02;95646.28;;;0.96;100.00
27210;BME280;14721;42.668;23.386;2023-01-29T07:11:28;95638.50;;;0.93;100.00
27210;BME280;14721;42.668;23.386;2023-01-29T07:13:53;95647.97;;;0.99;100.00
27210;BME280;14721;42.668;23.386;2023-01-29T07:16:19;95651.44;;;0.99;100.00
27210;BME280;14721;42.668;23.386;2023-01-29T07:18:45;95654.94;;;1.00;100.00
27210;BME280;14721;42.668;23.386;2023-01-29T07:21:10;95650.59;;;0.99;100.00
27210;BME280;14721;42.668;23.386;2023-01-29T07:23:36;95660.94;;;1.05;100.00
27210;BME280;14721;42.668;23.386;2023-01-29T07:26:02;95658.22;;;1.08;100.00
27210;BME280;14721;42.668;23.386;2023-01-29T07:28:28;95661.09;;;1.00;100.00
27210;BME280;14721;42.668;23.386;2023-01-29T07:30:56;95663.53;;;1.06;100.00
27210;BME280;14721;42.668;23.386;2023-01-29T07:33:22;95664.50;;;1.02;100.00
27210;BME280;14721;42.668;23.386;2023-01-29T07:35:47;95665.13;;;1.10;100.00
27210;BME280;14721;42.668;23.386;2023-01-29T07:38:13;95666.06;;;1.09;100.00
27210;BME280;14721;42.668;23.386;2023-01-29T07:40:38;95673.16;;;1.06;100.00
27210;BME280;14721;42.668;23.386;2023-01-29T07:43:06;95672.53;;;0.98;100.00
27210;BME280;14721;42.668;23.386;2023-01-29T07:45:36;95668.06;;;1.01;100.00
27210;BME280;14721;42.668;23.386;2023-01-29T07:48:03;95665.66;;;0.94;100.00
27210;BME280;14721;42.668;23.386;2023-01-29T07:50:30;95665.72;;;0.92;100.00
27210;BME280;14721;42.668;23.386;2023-01-29T07:52:56;95665.03;;;0.86;100.00
27210;BME280;14721;42.668;23.386;2023-01-29T07:55:22;95673.91;;;0.83;100.00
27210;BME280;14721;42.668;23.386;2023-01-29T07:58:02;95674.69;;;0.87;100.00
27210;BME280;14721;42.668;23.386;2023-01-29T08:00:30;95680.63;;;0.92;100.00
27210;BME280;14721;42.668;23.386;2023-01-29T08:03:06;95683.31;;;0.90;100.00
27210;BME280;14721;42.668;23.386;2023-01-29T08:05:33;95679.84;;;0.90;100.00
27210;BME280;14721;42.668;23.386;2023-01-29T08:07:59;95680.13;;;0.81;100.00
27210;BME280;14721;42.668;23.386;2023-01-29T08:10:27;95686.97;;;0.86;100.00
27210;BME280;14721;42.668;23.386;2023-01-29T08:12:56;95689.28;;;0.95;100.00
27210;BME280;14721;42.668;23.386;2023-01-29T08:15:23;95684.19;;;0.91;100.00
27210;BME280;14721;42.668;23.386;2023-01-29T08:17:49;95686.66;;;0.95;100.00
27210;BME280;14721;42.668;23.386;2023-01-29T08:20:15;95682.19;;;0.99;100.00
27210;BME280;14721;42.668;23.386;2023-01-29T08:22:41;95690.72;;;1.05;100.00
27210;BME280;14721;42.668;23.386;2023-01-29T08:25:08;95691.50;;;1.09;100.00
27210;BME280;14721;42.668;23.386;2023-01-29T08:27:34;95686.81;;;1.18;100.00
27210;BME280;14721;42.668;23.386;2023-01-29T08:29:59;95689.00;;;1.32;100.00
27210;BME280;14721;42.668;23.386;2023-01-29T08:32:25;95677.84;;;1.24;100.00
27210;BME280;14721;42.668;23.386;2023-01-29T08:34:50;95696.47;;;1.18;99.81
27210;BME280;14721;42.668;23.386;2023-01-29T08:37:16;95692.91;;;1.19;99.49
27210;BME280;14721;42.668;23.386;2023-01-29T08:39:41;95698.78;;;1.27;99.53
27210;BME280;14721;42.668;23.386;2023-01-29T08:42:07;95699.56;;;1.30;99.52
27210;BME280;14721;42.668;23.386;2023-01-29T08:44:34;95707.22;;;1.38;99.17
27210;BME280;14721;42.668;23.386;2023-01-29T08:47:00;95700.69;;;1.22;98.55
27210;BME280;14721;42.668;23.386;2023-01-29T08:49:25;95712.06;;;1.24;98.14
27210;BME280;14721;42.668;23.386;2023-01-29T08:51:51;95709.94;;;1.35;98.09
27210;BME280;14721;42.668;23.386;2023-01-29T08:54:18;95718.47;;;1.41;97.68
27210;BME280;14721;42.668;23.386;2023-01-29T08:56:43;95717.44;;;1.47;97.23
27210;BME280;14721;42.668;23.386;2023-01-29T08:59:09;95726.94;;;1.51;96.75
27210;BME280;14721;42.668;23.386;2023-01-29T09:01:35;95723.50;;;1.49;96.99
27210;BME280;14721;42.668;23.386;2023-01-29T09:04:01;95724.81;;;1.36;96.50
27210;BME280;14721;42.668;23.386;2023-01-29T09:06:26;95724.09;;;1.31;96.86
27210;BME280;14721;42.668;23.386;2023-01-29T09:08:53;95717.56;;;1.16;96.93
27210;BME280;14721;42.668;23.386;2023-01-29T09:11:19;95733.22;;;1.21;96.99
27210;BME280;14721;42.668;23.386;2023-01-29T09:13:44;95724.09;;;1.31;97.10
27210;BME280;14721;42.668;23.386;2023-01-29T09:16:10;95717.16;;;1.28;96.90
27210;BME280;14721;42.668;23.386;2023-01-29T09:18:35;95716.88;;;1.37;97.01
27210;BME280;14721;42.668;23.386;2023-01-29T09:21:01;95722.72;;;1.47;96.34
27210;BME280;14721;42.668;23.386;2023-01-29T09:23:28;95730.19;;;1.59;95.91
27210;BME280;14721;42.668;23.386;2023-01-29T09:25:54;95721.16;;;1.66;95.26
27210;BME280;14721;42.668;23.386;2023-01-29T09:28:20;95719.81;;;1.54;95.27
27210;BME280;14721;42.668;23.386;2023-01-29T09:30:45;95724.00;;;1.60;95.10
27210;BME280;14721;42.668;23.386;2023-01-29T09:33:11;95726.03;;;1.52;95.03
27210;BME280;14721;42.668;23.386;2023-01-29T09:35:39;95720.56;;;1.58;95.60
27210;BME280;14721;42.668;23.386;2023-01-29T09:38:05;95714.19;;;1.65;95.24
27210;BME280;14721;42.668;23.386;2023-01-29T09:43:26;95716.47;;;1.75;94.89
27210;BME280;14721;42.668;23.386;2023-01-29T09:45:57;95712.75;;;1.81;94.40
27210;BME280;14721;42.668;23.386;2023-01-29T09:48:27;95719.16;;;1.74;93.87
27210;BME280;14721;42.668;23.386;2023-01-29T09:50:57;95700.97;;;1.66;93.85
27210;BME280;14721;42.668;23.386;2023-01-29T09:53:42;95707.75;;;1.73;93.53
27210;BME280;14721;42.668;23.386;2023-01-29T09:56:13;95704.19;;;1.74;93.54
27210;BME280;14721;42.668;23.386;2023-01-29T09:58:42;95705.06;;;1.75;93.35
27210;BME280;14721;42.668;23.386;2023-01-29T10:25:40;95685.69;;;1.51;94.90
27210;BME280;14721;42.668;23.386;2023-01-29T10:28:19;95685.59;;;1.54;94.79
27210;BME280;14721;42.668;23.386;2023-01-29T10:30:49;95677.44;;;1.62;94.87
27210;BME280;14721;42.668;23.386;2023-01-29T10:33:28;95671.13;;;1.66;95.13
27210;BME280;14721;42.668;23.386;2023-01-29T10:36:00;95669.22;;;1.71;94.88
27210;BME280;14721;42.668;23.386;2023-01-29T10:38:46;95667.91;;;1.82;94.64
27210;BME280;14721;42.668;23.386;2023-01-29T10:52:12;95664.47;;;1.80;95.25
27210;BME280;14721;42.668;23.386;2023-01-29T10:57:47;95659.84;;;1.87;94.37
27210;BME280;14721;42.668;23.386;2023-01-29T11:02:46;95662.31;;;1.67;93.13
27210;BME280;14721;42.668;23.386;2023-01-29T11:08:09;95661.66;;;1.85;92.90
27210;BME280;14721;42.668;23.386;2023-01-29T11:10:47;95662.91;;;1.75;92.92
27210;BME280;14721;42.668;23.386;2023-01-29T11:13:17;95652.47;;;1.72;92.79
27210;BME280;14721;42.668;23.386;2023-01-29T11:15:42;95645.19;;;1.80;92.93
27210;BME280;14721;42.668;23.386;2023-01-29T11:18:10;95647.09;;;1.75;93.19
27210;BME280;14721;42.668;23.386;2023-01-29T11:20:39;95648.53;;;1.83;93.15
27210;BME280;14721;42.668;23.386;2023-01-29T11:23:05;95654.56;;;1.87;92.78
27210;BME280;14721;42.668;23.386;2023-01-29T11:25:51;95646.56;;;1.90;93.16
27210;BME280;14721;42.668;23.386;2023-01-29T11:28:43;95648.06;;;1.97;92.36
27210;BME280;14721;42.668;23.386;2023-01-29T11:33:41;95636.72;;;2.18;91.46
27210;BME280;14721;42.668;23.386;2023-01-29T11:36:40;95626.00;;;2.23;91.77
27210;BME280;14721;42.668;23.386;2023-01-29T11:41:42;95620.44;;;2.30;90.43
27210;BME280;14721;42.668;23.386;2023-01-29T11:46:52;95606.84;;;2.41;89.61
27210;BME280;14721;42.668;23.386;2023-01-29T11:49:26;95605.91;;;2.43;89.42
27210;BME280;14721;42.668;23.386;2023-01-29T11:51:54;95608.78;;;2.37;90.04
27210;BME280;14721;42.668;23.386;2023-01-29T11:54:28;95616.81;;;2.34;89.85
27210;BME280;14721;42.668;23.386;2023-01-29T11:56:56;95606.59;;;2.25;89.69
27210;BME280;14721;42.668;23.386;2023-01-29T12:01:53;95601.91;;;2.10;89.82
27210;BME280;14721;42.668;23.386;2023-01-29T12:04:22;95607.72;;;2.18;90.11
27210;BME280;14721;42.668;23.386;2023-01-29T12:06:50;95604.19;;;2.19;89.97
27210;BME280;14721;42.668;23.386;2023-01-29T12:09:21;95609.34;;;2.22;89.43
27210;BME280;14721;42.668;23.386;2023-01-29T12:11:48;95599.09;;;2.15;89.62
27210;BME280;14721;42.668;23.386;2023-01-29T12:14:26;95609.13;;;2.05;89.79
27210;BME280;14721;42.668;23.386;2023-01-29T12:17:21;95598.56;;;2.05;90.66
27210;BME280;14721;42.668;23.386;2023-01-29T12:19:54;95598.88;;;2.21;90.84
27210;BME280;14721;42.668;23.386;2023-01-29T12:24:58;95605.56;;;2.29;89.83
27210;BME280;14721;42.668;23.386;2023-01-29T12:27:39;95608.19;;;2.29;90.48
27210;BME280;14721;42.668;23.386;2023-01-29T12:30:18;95609.97;;;2.29;90.11
27210;BME280;14721;42.668;23.386;2023-01-29T12:35:41;95606.75;;;1.98;90.43
27210;BME280;14721;42.668;23.386;2023-01-29T12:38:17;95603.91;;;2.04;90.80
27210;BME280;14721;42.668;23.386;2023-01-29T12:40:56;95611.22;;;1.95;91.32
27210;BME280;14721;42.668;23.386;2023-01-29T12:46:01;95602.47;;;1.95;91.15
27210;BME280;14721;42.668;23.386;2023-01-29T12:48:33;95611.47;;;2.13;91.22
27210;BME280;14721;42.668;23.386;2023-01-29T12:51:10;95614.28;;;2.08;90.49
27210;BME280;14721;42.668;23.386;2023-01-29T12:53:55;95616.91;;;2.08;90.40
27210;BME280;14721;42.668;23.386;2023-01-29T12:56:35;95612.63;;;2.06;90.22
27210;BME280;14721;42.668;23.386;2023-01-29T12:59:35;95609.47;;;2.19;90.34
27210;BME280;14721;42.668;23.386;2023-01-29T13:04:55;95597.78;;;2.26;89.75
27210;BME280;14721;42.668;23.386;2023-01-29T13:07:28;95589.44;;;2.14;89.30
27210;BME280;14721;42.668;23.386;2023-01-29T13:10:03;95603.44;;;2.16;89.12
27210;BME280;14721;42.668;23.386;2023-01-29T13:12:30;95594.78;;;2.12;89.71
27210;BME280;14721;42.668;23.386;2023-01-29T13:15:16;95593.38;;;2.27;89.16
27210;BME280;14721;42.668;23.386;2023-01-29T13:17:52;95590.44;;;2.34;88.49
27210;BME280;14721;42.668;23.386;2023-01-29T13:20:26;95601.28;;;2.27;88.42
27210;BME280;14721;42.668;23.386;2023-01-29T13:22:56;95604.19;;;2.19;88.46
27210;BME280;14721;42.668;23.386;2023-01-29T13:25:23;95603.56;;;2.13;88.09
27210;BME280;14721;42.668;23.386;2023-01-29T13:27:49;95607.66;;;2.20;89.12
27210;BME280;14721;42.668;23.386;2023-01-29T13:30:32;95604.75;;;2.27;87.83
27210;BME280;14721;42.668;23.386;2023-01-29T13:33:02;95612.84;;;2.23;87.46
27210;BME280;14721;42.668;23.386;2023-01-29T13:35:36;95618.84;;;2.26;87.38
27210;BME280;14721;42.668;23.386;2023-01-29T13:38:04;95614.63;;;2.22;88.37
27210;BME280;14721;42.668;23.386;2023-01-29T13:40:31;95620.28;;;2.35;88.79
27210;BME280;14721;42.668;23.386;2023-01-29T13:43:00;95619.88;;;2.45;87.95
27210;BME280;14721;42.668;23.386;2023-01-29T13:47:52;95630.66;;;2.39;86.43
27210;BME280;14721;42.668;23.386;2023-01-29T13:50:18;95629.94;;;2.36;86.67
27210;BME280;14721;42.668;23.386;2023-01-29T13:52:59;95618.63;;;2.32;86.61
27210;BME280;14721;42.668;23.386;2023-01-29T13:55:36;95632.59;;;2.11;86.91
27210;BME280;14721;42.668;23.386;2023-01-29T13:58:07;95627.34;;;2.11;87.00
27210;BME280;14721;42.668;23.386;2023-01-29T14:05:42;95631.72;;;1.87;87.48
27210;BME280;14721;42.668;23.386;2023-01-29T14:10:35;95644.03;;;1.87;88.12
27210;BME280;14721;42.668;23.386;2023-01-29T14:18:26;95638.13;;;1.80;88.10
27210;BME280;14721;42.668;23.386;2023-01-29T14:20:58;95650.19;;;1.87;87.36
27210;BME280;14721;42.668;23.386;2023-01-29T14:26:31;95654.47;;;1.90;87.14
27210;BME280;14721;42.668;23.386;2023-01-29T14:31:46;95664.06;;;1.91;86.95
27210;BME280;14721;42.668;23.386;2023-01-29T14:34:17;95660.22;;;2.01;87.16
27210;BME280;14721;42.668;23.386;2023-01-29T14:36:46;95666.06;;;2.09;86.71
27210;BME280;14721;42.668;23.386;2023-01-29T14:41:50;95670.81;;;2.00;86.70
27210;BME280;14721;42.668;23.386;2023-01-29T14:52:20;95671.13;;;1.66;88.34
27210;BME280;14721;42.668;23.386;2023-01-29T14:54:49;95672.09;;;1.63;88.82
27210;BME280;14721;42.668;23.386;2023-01-29T14:57:16;95658.22;;;1.58;89.33
27210;BME280;14721;42.668;23.386;2023-01-29T14:59:51;95666.44;;;1.49;89.81
27210;BME280;14721;42.668;23.386;2023-01-29T15:02:27;95662.03;;;1.50;90.01
27210;BME280;14721;42.668;23.386;2023-01-29T15:05:02;95665.66;;;1.46;90.09
27210;BME280;14721;42.668;23.386;2023-01-29T15:10:16;95665.19;;;1.35;91.05
27210;BME280;14721;42.668;23.386;2023-01-29T15:15:34;95647.81;;;1.29;91.47
27210;BME280;14721;42.668;23.386;2023-01-29T15:18:04;95668.78;;;1.32;91.80
27210;BME280;14721;42.668;23.386;2023-01-29T15:20:36;95669.78;;;1.28;92.93
27210;BME280;14721;42.668;23.386;2023-01-29T15:23:03;95664.69;;;1.24;93.08
27210;BME280;14721;42.668;23.386;2023-01-29T15:25:48;95662.88;;;1.26;93.27
27210;BME280;14721;42.668;23.386;2023-01-29T15:30:40;95661.44;;;1.16;94.02
27210;BME280;14721;42.668;23.386;2023-01-29T15:33:08;95669.41;;;1.13;93.81
27210;BME280;14721;42.668;23.386;2023-01-29T15:35:36;95679.75;;;1.19;93.98
27210;BME280;14721;42.668;23.386;2023-01-29T15:40:29;95678.97;;;1.17;94.21
27210;BME280;14721;42.668;23.386;2023-01-29T15:42:54;95683.00;;;1.27;94.23
27210;BME280;14721;42.668;23.386;2023-01-29T15:45:22;95687.50;;;1.23;94.05